Time,TemperatureF,DewpointF,PressureIn,WindDirection,WindDirectionDegrees,WindSpeedMPH,WindSpeedGustMPH,Humidity,HourlyPrecipIn,Conditions,Clouds,dailyrainin,SolarRadiationWatts/m^2,SoftwareType,DateUTC
2013-11-19 00:05:00,34.5,27.1,30.12,WNW,290,12.0,14.0,74,0.00,,,0.00,0,Wunderground v.1.15,2013-11-19 05:05:00,
2013-11-19 00:11:00,34.5,26.7,30.12,WNW,302,12.0,14.0,73,0.00,,,0.00,0,Wunderground v.1.15,2013-11-19 05:11:00,
2013-11-19 00:15:00,34.5,26.7,30.12,WNW,296,14.0,19.0,73,0.00,,,0.00,0,Wunderground v.1.15,2013-11-19 05:15:00,
2013-11-19 00:21:00,34.5,26.4,30.12,WNW,300,15.0,19.0,72,0.00,,,0.00,0,Wunderground v.1.15,2013-11-19 05:21:00,
2013-11-19 00:25:00,34.5,26.7,30.12,WNW,298,15.0,15.0,73,0.00,,,0.00,0,Wunderground v.1.15,2013-11-19 05:25:00,
2013-11-19 00:30:00,34.5,26.7,30.12,NW,306,14.0,19.0,73,0.00,,,0.00,0,Wunderground v.1.15,2013-11-19 05:30:00,
2013-11-19 00:35:00,34.5,26.7,30.12,WNW,287,14.0,14.0,73,0.00,,,0.00,0,Wunderground v.1.15,2013-11-19 05:35:00,
2013-11-19 00:40:00,34.4,26.6,30.12,WNW,302,13.0,16.0,73,0.00,,,0.00,0,Wunderground v.1.15,2013-11-19 05:40:00,
2013-11-19 00:46:00,34.4,26.6,30.12,NW,306,13.0,13.0,73,0.00,,,0.00,0,Wunderground v.1.15,2013-11-19 05:46:00,
2013-11-19 00:51:00,34.3,26.5,30.13,NW,317,14.0,17.0,73,0.00,,,0.00,0,Wunderground v.1.15,2013-11-19 05:51:00,
2013-11-19 01:01:00,34.4,26.0,30.12,NW,311,14.0,14.0,71,0.00,,,0.00,0,Wunderground v.1.15,2013-11-19 06:01:00,
2013-11-19 01:10:00,34.3,25.5,30.13,NW,309,11.0,11.0,70,0.00,,,0.00,0,Wunderground v.1.15,2013-11-19 06:10:00,
2013-11-19 01:20:00,34.3,25.5,30.13,WNW,290,15.0,15.0,70,0.00,,,0.00,0,Wunderground v.1.15,2013-11-19 06:20:00,
2013-11-19 01:25:00,34.3,25.5,30.13,WNW,284,15.0,15.0,70,0.00,,,0.00,0,Wunderground v.1.15,2013-11-19 06:25:00,
2013-11-19 01:31:00,34.2,25.4,30.14,WNW,294,15.0,15.0,70,0.00,,,0.00,0,Wunderground v.1.15,2013-11-19 06:31:00,
2013-11-19 01:36:00,34.2,25.4,30.14,WNW,299,14.0,15.0,70,0.00,,,0.00,0,Wunderground v.1.15,2013-11-19 06:36:00,
2013-11-19 01:45:00,34.1,25.7,30.15,WNW,294,11.0,13.0,71,0.00,,,0.00,0,Wunderground v.1.15,2013-11-19 06:45:00,
2013-11-19 01:51:00,34.1,25.7,30.15,NW,306,10.0,10.0,71,0.00,,,0.00,0,Wunderground v.1.15,2013-11-19 06:51:00,
2013-11-19 01:56:00,33.9,25.5,30.15,NW,313,9.0,10.0,71,0.00,,,0.00,0,Wunderground v.1.15,2013-11-19 06:56:00,
2013-11-19 02:06:00,33.8,24.7,30.15,NW,306,10.0,10.0,69,0.00,,,0.00,0,Wunderground v.1.15,2013-11-19 07:06:00,
2013-11-19 02:11:00,33.7,25.0,30.16,NW,313,9.0,11.0,70,0.00,,,0.00,0,Wunderground v.1.15,2013-11-19 07:11:00,
2013-11-19 02:16:00,33.6,24.9,30.16,NW,305,10.0,13.0,70,0.00,,,0.00,0,Wunderground v.1.15,2013-11-19 07:16:00,
2013-11-19 02:26:00,33.4,24.3,30.16,NW,311,10.0,10.0,69,0.00,,,0.00,0,Wunderground v.1.15,2013-11-19 07:26:00,
2013-11-19 02:35:00,33.1,25.1,30.17,WNW,294,9.0,10.0,72,0.00,,,0.00,0,Wunderground v.1.15,2013-11-19 07:35:00,
2013-11-19 02:41:00,33.0,25.3,30.17,NW,311,9.0,9.0,73,0.00,,,0.00,0,Wunderground v.1.15,2013-11-19 07:41:00,
2013-11-19 02:50:00,32.7,25.3,30.17,WNW,296,7.0,7.0,74,0.00,,,0.00,0,Wunderground v.1.15,2013-11-19 07:50:00,
2013-11-19 02:55:00,32.7,25.3,30.17,WNW,296,7.0,7.0,74,0.00,,,0.00,0,Wunderground v.1.15,2013-11-19 07:55:00,
2013-11-19 03:01:00,32.6,25.6,30.17,WNW,296,6.0,6.0,75,0.00,,,0.00,0,Wunderground v.1.15,2013-11-19 08:01:00,
2013-11-19 03:10:00,32.5,25.5,30.18,WNW,296,6.0,6.0,75,0.00,,,0.00,0,Wunderground v.1.15,2013-11-19 08:10:00,
2013-11-19 03:16:00,32.5,25.1,30.18,WNW,286,8.0,8.0,74,0.00,,,0.00,0,Wunderground v.1.15,2013-11-19 08:16:00,
2013-11-19 03:26:00,32.3,24.9,30.18,WNW,300,7.0,8.0,74,0.00,,,0.00,0,Wunderground v.1.15,2013-11-19 08:26:00,
2013-11-19 03:36:00,32.1,24.7,30.18,West,278,7.0,7.0,74,0.00,,,0.00,0,Wunderground v.1.15,2013-11-19 08:36:00,
2013-11-19 03:45:00,32.0,24.6,30.19,WNW,294,8.0,9.0,74,0.00,,,0.00,0,Wunderground v.1.15,2013-11-19 08:45:00,
2013-11-19 03:50:00,31.8,24.8,30.19,NW,308,7.0,7.0,75,0.00,,,0.00,0,Wunderground v.1.15,2013-11-19 08:50:00,
2013-11-19 04:00:00,31.6,24.3,30.20,NW,309,6.0,9.0,74,0.00,,,0.00,0,Wunderground v.1.15,2013-11-19 09:00:00,
2013-11-19 04:06:00,31.6,24.6,30.20,NW,307,6.0,9.0,75,0.00,,,0.00,0,Wunderground v.1.15,2013-11-19 09:06:00,
2013-11-19 04:15:00,31.4,25.0,30.20,NW,307,4.0,5.0,77,0.00,,,0.00,0,Wunderground v.1.15,2013-11-19 09:15:00,
2013-11-19 04:20:00,31.3,25.2,30.20,NW,307,4.0,5.0,78,0.00,,,0.00,0,Wunderground v.1.15,2013-11-19 09:20:00,
2013-11-19 04:31:00,31.0,24.9,30.21,NW,307,4.0,4.0,78,0.00,,,0.00,0,Wunderground v.1.15,2013-11-19 09:31:00,
2013-11-19 04:41:00,30.9,24.8,30.21,NW,307,4.0,4.0,78,0.00,,,0.00,0,Wunderground v.1.15,2013-11-19 09:41:00,
2013-11-19 04:50:00,30.9,24.8,30.22,NW,307,4.0,4.0,78,0.00,,,0.00,0,Wunderground v.1.15,2013-11-19 09:50:00,
2013-11-19 04:56:00,30.8,25.1,30.22,NW,307,5.0,5.0,79,0.00,,,0.00,0,Wunderground v.1.15,2013-11-19 09:56:00,
2013-11-19 05:06:00,30.8,25.1,30.23,West,271,4.0,5.0,79,0.00,,,0.00,0,Wunderground v.1.15,2013-11-19 10:06:00,
2013-11-19 05:15:00,30.8,25.1,30.23,West,271,4.0,4.0,79,0.00,,,0.00,0,Wunderground v.1.15,2013-11-19 10:15:00,
2013-11-19 05:21:00,30.9,25.2,30.24,West,271,4.0,4.0,79,0.00,,,0.00,0,Wunderground v.1.15,2013-11-19 10:21:00,
2013-11-19 05:30:00,31.0,24.6,30.24,WNW,282,5.0,5.0,77,0.00,,,0.00,0,Wunderground v.1.15,2013-11-19 10:30:00,
2013-11-19 05:41:00,31.0,24.6,30.25,WNW,282,5.0,5.0,77,0.00,,,0.00,0,Wunderground v.1.15,2013-11-19 10:41:00,
2013-11-19 05:51:00,30.7,24.7,30.25,WNW,282,4.0,4.0,78,0.00,,,0.00,0,Wunderground v.1.15,2013-11-19 10:51:00,
2013-11-19 06:00:00,30.3,24.3,30.25,WNW,282,4.0,4.0,78,0.00,,,0.00,0,Wunderground v.1.15,2013-11-19 11:00:00,
2013-11-19 06:05:00,30.2,24.5,30.25,WNW,282,4.0,4.0,79,0.00,,,0.00,0,Wunderground v.1.15,2013-11-19 11:05:00,
2013-11-19 06:11:00,30.1,24.4,30.26,WNW,282,4.0,4.0,79,0.00,,,0.00,0,Wunderground v.1.15,2013-11-19 11:11:00,
2013-11-19 06:21:00,29.8,24.1,30.26,WNW,282,3.0,4.0,79,0.00,,,0.00,0,Wunderground v.1.15,2013-11-19 11:21:00,
2013-11-19 06:30:00,29.6,24.2,30.26,WNW,282,3.0,5.0,80,0.00,,,0.00,0,Wunderground v.1.15,2013-11-19 11:30:00,
2013-11-19 06:35:00,29.7,24.3,30.26,WNW,282,4.0,5.0,80,0.00,,,0.00,0,Wunderground v.1.15,2013-11-19 11:35:00,
2013-11-19 06:40:00,29.7,24.3,30.27,WNW,282,4.0,4.0,80,0.00,,,0.00,0,Wunderground v.1.15,2013-11-19 11:40:00,
2013-11-19 06:46:00,29.5,24.4,30.27,WNW,282,3.0,4.0,81,0.00,,,0.00,0,Wunderground v.1.15,2013-11-19 11:46:00,
2013-11-19 06:51:00,29.4,24.0,30.27,WNW,282,3.0,3.0,80,0.00,,,0.00,0,Wunderground v.1.15,2013-11-19 11:51:00,
2013-11-19 06:56:00,29.4,24.3,30.27,WNW,282,3.0,3.0,81,0.00,,,0.00,0,Wunderground v.1.15,2013-11-19 11:56:00,
2013-11-19 07:06:00,29.2,24.1,30.27,WNW,282,4.0,4.0,81,0.00,,,0.00,0,Wunderground v.1.15,2013-11-19 12:06:00,
2013-11-19 07:16:00,28.9,23.8,30.28,WNW,282,3.0,4.0,81,0.00,,,0.00,0,Wunderground v.1.15,2013-11-19 12:16:00,
2013-11-19 07:21:00,28.9,23.8,30.28,WNW,282,3.0,3.0,81,0.00,,,0.00,0,Wunderground v.1.15,2013-11-19 12:21:00,
2013-11-19 07:26:00,28.9,24.1,30.28,WNW,282,3.0,4.0,82,0.00,,,0.00,0,Wunderground v.1.15,2013-11-19 12:26:00,
2013-11-19 07:36:00,29.0,24.2,30.29,WNW,282,3.0,4.0,82,0.00,,,0.00,0,Wunderground v.1.15,2013-11-19 12:36:00,
2013-11-19 07:41:00,29.0,24.2,30.29,WNW,282,2.0,2.0,82,0.00,,,0.00,5,Wunderground v.1.15,2013-11-19 12:41:00,
2013-11-19 07:46:00,29.0,24.2,30.30,WNW,282,2.0,2.0,82,0.00,,,0.00,7,Wunderground v.1.15,2013-11-19 12:46:00,
2013-11-19 07:51:00,29.1,24.0,30.29,WNW,282,2.0,2.0,81,0.00,,,0.00,11,Wunderground v.1.15,2013-11-19 12:51:00,
2013-11-19 08:00:00,29.3,24.2,30.30,WNW,282,3.0,4.0,81,0.00,,,0.00,21,Wunderground v.1.15,2013-11-19 13:00:00,
2013-11-19 08:06:00,29.4,24.3,30.31,WNW,282,3.0,4.0,81,0.00,,,0.00,25,Wunderground v.1.15,2013-11-19 13:06:00,
2013-11-19 08:15:00,29.6,24.2,30.31,WNW,282,3.0,4.0,80,0.00,,,0.00,33,Wunderground v.1.15,2013-11-19 13:15:00,
2013-11-19 08:26:00,29.8,24.4,30.31,WNW,282,3.0,4.0,80,0.00,,,0.00,49,Wunderground v.1.15,2013-11-19 13:26:00,
2013-11-19 08:31:00,30.0,24.3,30.31,WNW,282,4.0,5.0,79,0.00,,,0.00,54,Wunderground v.1.15,2013-11-19 13:31:00,
2013-11-19 08:41:00,30.3,24.3,30.32,WNW,282,4.0,5.0,78,0.00,,,0.00,63,Wunderground v.1.15,2013-11-19 13:41:00,
2013-11-19 08:51:00,30.5,24.8,30.32,WNW,282,5.0,5.0,79,0.00,,,0.00,86,Wunderground v.1.15,2013-11-19 13:51:00,
2013-11-19 09:01:00,30.8,25.4,30.32,WNW,282,4.0,4.0,80,0.00,,,0.00,171,Wunderground v.1.15,2013-11-19 14:01:00,
2013-11-19 09:06:00,31.1,25.7,30.32,WNW,282,4.0,4.0,80,0.00,,,0.00,105,Wunderground v.1.15,2013-11-19 14:06:00,
2013-11-19 09:11:00,31.2,25.7,30.32,WNW,282,4.0,4.0,80,0.00,,,0.00,176,Wunderground v.1.15,2013-11-19 14:11:00,
2013-11-19 09:21:00,32.0,25.9,30.33,WNW,282,4.0,4.0,78,0.00,,,0.00,188,Wunderground v.1.15,2013-11-19 14:21:00,
2013-11-19 09:31:00,32.5,25.8,30.33,WNW,282,5.0,5.0,76,0.00,,,0.00,211,Wunderground v.1.15,2013-11-19 14:31:00,
2013-11-19 09:41:00,33.1,25.7,30.33,WNW,302,5.0,5.0,74,0.00,,,0.00,241,Wunderground v.1.15,2013-11-19 14:41:00,
2013-11-19 09:51:00,33.6,25.5,30.33,NW,304,4.0,5.0,72,0.00,,,0.00,264,Wunderground v.1.15,2013-11-19 14:51:00,
2013-11-19 09:56:00,33.8,25.4,30.33,NW,315,5.0,7.0,71,0.00,,,0.00,274,Wunderground v.1.15,2013-11-19 14:56:00,
2013-11-19 10:06:00,34.2,25.8,30.33,WNW,290,5.0,6.0,71,0.00,,,0.00,294,Wunderground v.1.15,2013-11-19 15:06:00,
2013-11-19 10:11:00,34.3,25.2,30.33,WNW,297,6.0,6.0,69,0.00,,,0.00,302,Wunderground v.1.15,2013-11-19 15:11:00,
2013-11-19 10:16:00,34.3,25.2,30.34,NNW,337,5.0,6.0,69,0.00,,,0.00,311,Wunderground v.1.15,2013-11-19 15:16:00,
2013-11-19 10:26:00,34.3,24.8,30.34,NW,309,4.0,5.0,68,0.00,,,0.00,330,Wunderground v.1.15,2013-11-19 15:26:00,
2013-11-19 10:31:00,34.6,25.5,30.34,NW,313,5.0,5.0,69,0.00,,,0.00,341,Wunderground v.1.15,2013-11-19 15:31:00,
2013-11-19 10:41:00,34.7,24.5,30.34,NNW,333,4.0,4.0,66,0.00,,,0.00,204,Wunderground v.1.15,2013-11-19 15:41:00,
2013-11-19 10:51:00,34.9,25.0,30.35,NNW,346,4.0,8.0,67,0.00,,,0.00,369,Wunderground v.1.15,2013-11-19 15:51:00,
2013-11-19 11:01:00,35.2,25.0,30.35,NNW,338,3.0,3.0,66,0.00,,,0.00,385,Wunderground v.1.15,2013-11-19 16:01:00,
2013-11-19 11:06:00,35.3,25.1,30.35,NNW,338,1.0,3.0,66,0.00,,,0.00,392,Wunderground v.1.15,2013-11-19 16:06:00,
2013-11-19 11:11:00,35.6,25.7,30.35,NNW,332,2.0,4.0,67,0.00,,,0.00,397,Wunderground v.1.15,2013-11-19 16:11:00,
2013-11-19 11:16:00,35.7,25.4,30.35,NNW,329,2.0,4.0,66,0.00,,,0.00,403,Wunderground v.1.15,2013-11-19 16:16:00,
2013-11-19 11:21:00,35.8,26.3,30.35,NNW,329,2.0,2.0,68,0.00,,,0.00,415,Wunderground v.1.15,2013-11-19 16:21:00,
2013-11-19 11:26:00,36.1,26.2,30.35,NNW,329,1.0,2.0,67,0.00,,,0.00,417,Wunderground v.1.15,2013-11-19 16:26:00,
2013-11-19 11:36:00,36.6,25.9,30.35,NNW,329,1.0,2.0,65,0.00,,,0.00,420,Wunderground v.1.15,2013-11-19 16:36:00,
2013-11-19 11:46:00,36.3,26.0,30.34,West,281,3.0,4.0,66,0.00,,,0.00,429,Wunderground v.1.15,2013-11-19 16:46:00,
2013-11-19 11:56:00,36.2,25.6,30.35,West,273,3.0,4.0,65,0.00,,,0.00,432,Wunderground v.1.15,2013-11-19 16:56:00,
2013-11-19 12:01:00,36.3,25.3,30.35,West,273,1.0,3.0,64,0.00,,,0.00,438,Wunderground v.1.15,2013-11-19 17:01:00,
2013-11-19 12:11:00,36.4,25.7,30.34,WNW,284,3.0,3.0,65,0.00,,,0.00,443,Wunderground v.1.15,2013-11-19 17:11:00,
2013-11-19 12:21:00,36.8,25.8,30.34,North,349,2.0,3.0,64,0.00,,,0.00,443,Wunderground v.1.15,2013-11-19 17:21:00,
2013-11-19 12:31:00,37.2,25.8,30.34,North,360,3.0,5.0,63,0.00,,,0.00,446,Wunderground v.1.15,2013-11-19 17:31:00,
2013-11-19 12:41:00,37.5,26.4,30.34,North,360,1.0,1.0,64,0.00,,,0.00,446,Wunderground v.1.15,2013-11-19 17:41:00,
2013-11-19 12:46:00,37.6,26.1,30.34,North,349,1.0,1.0,63,0.00,,,0.00,445,Wunderground v.1.15,2013-11-19 17:46:00,
2013-11-19 12:56:00,38.0,26.9,30.34,West,277,1.0,2.0,64,0.00,,,0.00,441,Wunderground v.1.15,2013-11-19 17:56:00,
2013-11-19 13:01:00,38.1,25.8,30.34,West,277,1.0,1.0,61,0.00,,,0.00,439,Wunderground v.1.15,2013-11-19 18:01:00,
2013-11-19 13:11:00,37.9,25.6,30.34,WNW,286,2.0,4.0,61,0.00,,,0.00,432,Wunderground v.1.15,2013-11-19 18:11:00,
2013-11-19 13:21:00,38.1,27.0,30.34,WSW,243,3.0,4.0,64,0.00,,,0.00,424,Wunderground v.1.15,2013-11-19 18:21:00,
2013-11-19 13:26:00,38.1,26.6,30.34,WSW,248,3.0,4.0,63,0.00,,,0.00,424,Wunderground v.1.15,2013-11-19 18:26:00,
2013-11-19 13:36:00,38.3,27.2,30.33,WSW,250,1.0,2.0,64,0.00,,,0.00,413,Wunderground v.1.15,2013-11-19 18:36:00,
2013-11-19 13:41:00,38.5,26.2,30.34,NW,313,1.0,2.0,61,0.00,,,0.00,410,Wunderground v.1.15,2013-11-19 18:41:00,
2013-11-19 13:51:00,38.7,27.9,30.34,West,265,3.0,7.0,65,0.00,,,0.00,397,Wunderground v.1.15,2013-11-19 18:51:00,
2013-11-19 13:56:00,38.4,26.9,30.33,West,267,4.0,7.0,63,0.00,,,0.00,392,Wunderground v.1.15,2013-11-19 18:56:00,
2013-11-19 14:06:00,38.5,26.2,30.33,West,278,1.0,2.0,61,0.00,,,0.00,380,Wunderground v.1.15,2013-11-19 19:06:00,
2013-11-19 14:16:00,38.9,26.6,30.33,West,278,0.0,1.0,61,0.00,,,0.00,364,Wunderground v.1.15,2013-11-19 19:16:00,
2013-11-19 14:26:00,39.6,27.2,30.32,WNW,286,0.0,4.0,61,0.00,,,0.00,352,Wunderground v.1.15,2013-11-19 19:26:00,
2013-11-19 14:31:00,39.7,26.9,30.32,ENE,70,1.0,4.0,60,0.00,,,0.00,343,Wunderground v.1.15,2013-11-19 19:31:00,
2013-11-19 14:36:00,39.4,25.8,30.32,ENE,70,2.0,4.0,58,0.00,,,0.00,334,Wunderground v.1.15,2013-11-19 19:36:00,
2013-11-19 14:46:00,39.3,26.2,30.32,NNE,24,1.0,2.0,59,0.00,,,0.00,316,Wunderground v.1.15,2013-11-19 19:46:00,
2013-11-19 14:51:00,39.4,25.8,30.32,NNE,24,0.0,1.0,58,0.00,,,0.00,306,Wunderground v.1.15,2013-11-19 19:51:00,
2013-11-19 15:01:00,39.5,26.3,30.32,NNE,23,0.0,0.0,59,0.00,,,0.00,287,Wunderground v.1.15,2013-11-19 20:01:00,
2013-11-19 15:06:00,39.8,27.0,30.32,ENE,71,0.0,3.0,60,0.00,,,0.00,276,Wunderground v.1.15,2013-11-19 20:06:00,
2013-11-19 15:16:00,39.8,27.0,30.32,ENE,71,0.0,1.0,60,0.00,,,0.00,255,Wunderground v.1.15,2013-11-19 20:16:00,
2013-11-19 15:21:00,40.0,26.8,30.32,ENE,71,0.0,0.0,59,0.00,,,0.00,239,Wunderground v.1.15,2013-11-19 20:21:00,
2013-11-19 15:26:00,39.9,27.5,30.32,ENE,72,1.0,1.0,61,0.00,,,0.00,227,Wunderground v.1.15,2013-11-19 20:26:00,
2013-11-19 15:31:00,39.8,27.4,30.32,SSE,154,2.0,2.0,61,0.00,,,0.00,211,Wunderground v.1.15,2013-11-19 20:31:00,
2013-11-19 15:36:00,39.8,27.0,30.32,East,97,2.0,2.0,60,0.00,,,0.00,197,Wunderground v.1.15,2013-11-19 20:36:00,
2013-11-19 15:41:00,39.7,26.9,30.32,ESE,119,1.0,1.0,60,0.00,,,0.00,181,Wunderground v.1.15,2013-11-19 20:41:00,
2013-11-19 15:51:00,39.5,26.8,30.33,ESE,119,0.0,0.0,60,0.00,,,0.00,153,Wunderground v.1.15,2013-11-19 20:51:00,
2013-11-19 15:56:00,39.8,27.4,30.33,ESE,119,0.0,2.0,61,0.00,,,0.00,144,Wunderground v.1.15,2013-11-19 20:56:00,
2013-11-19 16:05:00,39.5,27.5,30.33,SW,217,3.0,3.0,62,0.00,,,0.00,114,Wunderground v.1.15,2013-11-19 21:05:00,
2013-11-19 16:16:00,39.2,26.9,30.33,SW,232,2.0,2.0,61,0.00,,,0.00,83,Wunderground v.1.15,2013-11-19 21:16:00,
2013-11-19 16:26:00,39.3,28.1,30.34,SW,232,1.0,1.0,64,0.00,,,0.00,62,Wunderground v.1.15,2013-11-19 21:26:00,
2013-11-19 16:35:00,39.2,27.7,30.34,SW,232,2.0,2.0,63,0.00,,,0.00,42,Wunderground v.1.15,2013-11-19 21:35:00,
2013-11-19 16:41:00,39.0,27.8,30.34,SW,232,2.0,2.0,64,0.00,,,0.00,32,Wunderground v.1.15,2013-11-19 21:41:00,
2013-11-19 16:51:00,38.7,27.6,30.35,SW,232,2.0,4.0,64,0.00,,,0.00,19,Wunderground v.1.15,2013-11-19 21:51:00,
2013-11-19 17:01:00,37.4,26.7,30.35,SW,232,4.0,4.0,65,0.00,,,0.00,12,Wunderground v.1.15,2013-11-19 22:01:00,
2013-11-19 17:11:00,36.5,26.6,30.35,SW,232,2.0,3.0,67,0.00,,,0.00,0,Wunderground v.1.15,2013-11-19 22:11:00,
2013-11-19 17:16:00,36.4,26.8,30.35,SW,232,2.0,3.0,68,0.00,,,0.00,0,Wunderground v.1.15,2013-11-19 22:16:00,
2013-11-19 17:26:00,36.2,26.6,30.35,SW,232,1.0,2.0,68,0.00,,,0.00,0,Wunderground v.1.15,2013-11-19 22:26:00,
2013-11-19 17:31:00,36.0,26.5,30.35,SW,232,1.0,1.0,68,0.00,,,0.00,0,Wunderground v.1.15,2013-11-19 22:31:00,
2013-11-19 17:41:00,35.7,26.5,30.35,SW,232,0.0,0.0,69,0.00,,,0.00,0,Wunderground v.1.15,2013-11-19 22:41:00,
2013-11-19 17:46:00,35.4,26.2,30.36,SW,232,0.0,0.0,69,0.00,,,0.00,0,Wunderground v.1.15,2013-11-19 22:46:00,
2013-11-19 17:51:00,35.1,26.3,30.36,SW,232,0.0,0.0,70,0.00,,,0.00,0,Wunderground v.1.15,2013-11-19 22:51:00,
2013-11-19 18:00:00,34.6,27.2,30.36,SW,232,0.0,0.0,74,0.00,,,0.00,0,Wunderground v.1.15,2013-11-19 23:00:00,
2013-11-19 18:11:00,34.1,26.7,30.37,SW,232,0.0,0.0,74,0.00,,,0.00,0,Wunderground v.1.15,2013-11-19 23:11:00,
2013-11-19 18:21:00,33.6,26.8,30.37,SW,232,0.0,0.0,76,0.00,,,0.00,0,Wunderground v.1.15,2013-11-19 23:21:00,
2013-11-19 18:41:00,33.1,27.6,30.37,SW,232,0.0,0.0,80,0.00,,,0.00,0,Wunderground v.1.15,2013-11-19 23:41:00,
2013-11-19 18:46:00,32.9,27.7,30.37,SW,232,0.0,1.0,81,0.00,,,0.00,0,Wunderground v.1.15,2013-11-19 23:46:00,
2013-11-19 19:01:00,32.6,27.7,30.37,SW,232,2.0,2.0,82,0.00,,,0.00,0,Wunderground v.1.15,2013-11-20 00:01:00,
2013-11-19 19:11:00,32.1,27.2,30.37,East,89,1.0,2.0,82,0.00,,,0.00,0,Wunderground v.1.15,2013-11-20 00:11:00,
2013-11-19 19:21:00,31.7,26.8,30.37,East,92,3.0,4.0,82,0.00,,,0.00,0,Wunderground v.1.15,2013-11-20 00:21:00,
2013-11-19 19:30:00,32.3,27.4,30.37,East,99,5.0,5.0,82,0.00,,,0.00,0,Wunderground v.1.15,2013-11-20 00:30:00,
2013-11-19 19:41:00,32.7,27.5,30.37,East,95,5.0,5.0,81,0.00,,,0.00,0,Wunderground v.1.15,2013-11-20 00:41:00,
2013-11-19 19:51:00,32.7,27.2,30.37,East,101,5.0,5.0,80,0.00,,,0.00,0,Wunderground v.1.15,2013-11-20 00:51:00,
2013-11-19 20:01:00,32.6,27.1,30.37,ESE,105,4.0,4.0,80,0.00,,,0.00,0,Wunderground v.1.15,2013-11-20 01:01:00,
2013-11-19 20:16:00,32.3,27.1,30.37,ESE,113,3.0,3.0,81,0.00,,,0.00,0,Wunderground v.1.15,2013-11-20 01:16:00,
2013-11-19 20:31:00,32.1,26.9,30.37,ESE,116,3.0,5.0,81,0.00,,,0.00,0,Wunderground v.1.15,2013-11-20 01:31:00,
2013-11-19 20:36:00,32.0,26.8,30.37,ESE,116,4.0,5.0,81,0.00,,,0.00,0,Wunderground v.1.15,2013-11-20 01:36:00,
2013-11-19 20:41:00,31.9,26.7,30.38,ESE,116,4.0,4.0,81,0.00,,,0.00,0,Wunderground v.1.15,2013-11-20 01:41:00,
2013-11-19 20:51:00,31.7,26.5,30.38,ESE,116,3.0,3.0,81,0.00,,,0.00,0,Wunderground v.1.15,2013-11-20 01:51:00,
2013-11-19 21:01:00,31.4,26.2,30.38,ESE,116,1.0,2.0,81,0.00,,,0.00,0,Wunderground v.1.15,2013-11-20 02:01:00,
2013-11-19 21:06:00,31.3,26.4,30.38,ESE,116,1.0,2.0,82,0.00,,,0.00,0,Wunderground v.1.15,2013-11-20 02:06:00,
2013-11-19 21:11:00,31.2,26.3,30.38,ESE,121,2.0,4.0,82,0.00,,,0.00,0,Wunderground v.1.15,2013-11-20 02:11:00,
2013-11-19 21:21:00,31.1,26.2,30.38,ESE,114,3.0,4.0,82,0.00,,,0.00,0,Wunderground v.1.15,2013-11-20 02:21:00,
2013-11-19 21:26:00,31.1,26.2,30.38,ESE,123,3.0,4.0,82,0.00,,,0.00,0,Wunderground v.1.15,2013-11-20 02:26:00,
2013-11-19 21:36:00,31.0,26.4,30.38,ESE,123,3.0,3.0,83,0.00,,,0.00,0,Wunderground v.1.15,2013-11-20 02:36:00,
2013-11-19 21:51:00,31.1,26.5,30.38,ESE,116,5.0,5.0,83,0.00,,,0.00,0,Wunderground v.1.15,2013-11-20 02:51:00,
2013-11-19 22:16:00,31.1,26.0,30.38,ESE,103,6.0,6.0,81,0.00,,,0.00,0,Wunderground v.1.15,2013-11-20 03:16:00,
2013-11-19 22:31:00,31.2,26.0,30.38,ESE,104,5.0,6.0,81,0.00,,,0.00,0,Wunderground v.1.15,2013-11-20 03:31:00,
2013-11-19 22:41:00,31.4,25.9,30.37,ESE,108,6.0,6.0,80,0.00,,,0.00,0,Wunderground v.1.15,2013-11-20 03:41:00,
2013-11-19 22:51:00,31.2,25.7,30.37,ESE,105,6.0,6.0,80,0.00,,,0.00,0,Wunderground v.1.15,2013-11-20 03:51:00,
2013-11-19 23:06:00,30.9,25.5,30.38,ESE,107,6.0,8.0,80,0.00,,,0.00,0,Wunderground v.1.15,2013-11-20 04:06:00,
2013-11-19 23:16:00,30.8,25.7,30.38,East,100,6.0,9.0,81,0.00,,,0.00,0,Wunderground v.1.15,2013-11-20 04:16:00,
2013-11-19 23:26:00,30.7,25.6,30.38,East,98,6.0,6.0,81,0.00,,,0.00,0,Wunderground v.1.15,2013-11-20 04:26:00,
2013-11-19 23:31:00,30.6,25.5,30.38,ESE,109,7.0,7.0,81,0.00,,,0.00,0,Wunderground v.1.15,2013-11-20 04:31:00,
2013-11-19 23:41:00,30.6,25.8,30.39,ESE,114,6.0,7.0,82,0.00,,,0.00,0,Wunderground v.1.15,2013-11-20 04:41:00,
2013-11-19 23:46:00,30.6,25.5,30.38,ESE,106,7.0,7.0,81,0.00,,,0.00,0,Wunderground v.1.15,2013-11-20 04:46:00,
2013-11-19 23:56:00,30.5,25.7,30.38,ESE,113,7.0,7.0,82,0.00,,,0.00,0,Wunderground v.1.15,2013-11-20 04:56:00,